createdAt,value
2022-08-04T00:00:15.642Z,99711.03
2022-08-04T00:03:02.724Z,99704.25
2022-08-04T00:05:53.866Z,99705.03
2022-08-04T00:08:40.331Z,99713.44
2022-08-04T00:11:12.002Z,99666.91
2022-08-04T00:14:02.379Z,99699.94
2022-08-04T00:16:38.076Z,99706.44
2022-08-04T00:19:12.122Z,99712.13
2022-08-04T00:21:47.198Z,99720.22
2022-08-04T00:24:15.985Z,99724.81
2022-08-04T00:26:43.640Z,99714.56
2022-08-04T00:29:10.848Z,99719.94
2022-08-04T00:31:56.814Z,99714.00
2022-08-04T00:34:29.251Z,99727.00
2022-08-04T00:36:58.640Z,99696.97
2022-08-04T00:39:26.453Z,99714.28
2022-08-04T00:42:58.833Z,99724.56
2022-08-04T00:46:11.695Z,99716.47
2022-08-04T00:48:47.796Z,99720.72
2022-08-04T00:51:35.909Z,99724.72
2022-08-04T00:54:13.376Z,99724.16
2022-08-04T00:56:40.042Z,99727.41
2022-08-04T00:59:34.234Z,99724.94
2022-08-04T01:02:02.015Z,99718.19
2022-08-04T01:04:47.722Z,99721.44
2022-08-04T01:07:42.186Z,99718.75
2022-08-04T01:10:36.747Z,99724.94
2022-08-04T01:13:25.403Z,99715.22
2022-08-04T01:15:59.395Z,99717.16
2022-08-04T01:18:44.122Z,99715.50
2022-08-04T01:21:38.322Z,99722.84
2022-08-04T01:24:43.782Z,99721.75
2022-08-04T01:27:26.787Z,99718.53
2022-08-04T01:29:59.162Z,99716.63
2022-08-04T01:32:38.534Z,99726.13
2022-08-04T01:35:08.219Z,99722.38
2022-08-04T01:38:18.386Z,99719.97
2022-08-04T01:40:52.923Z,99642.59
2022-08-04T01:43:21.110Z,99706.69
2022-08-04T01:45:52.382Z,99721.84
2022-08-04T01:48:25.149Z,99717.50
2022-08-04T01:50:59.582Z,99719.41
2022-08-04T01:53:31.966Z,99715.34
2022-08-04T01:56:00.812Z,99717.22
2022-08-04T01:58:30.071Z,99711.22
2022-08-04T02:01:08.551Z,99714.78
2022-08-04T02:04:18.338Z,99713.94
2022-08-04T02:06:33.971Z,99726.63
2022-08-04T02:09:04.184Z,99722.84
2022-08-04T02:11:30.994Z,99716.06
2022-08-04T02:14:06.861Z,99719.84
2022-08-04T02:16:52.382Z,99721.19
2022-08-04T02:19:58.265Z,99723.34
2022-08-04T02:22:27.419Z,99714.94
2022-08-04T02:25:24.592Z,99723.88
2022-08-04T02:28:32.606Z,99727.06
2022-08-04T02:31:36.490Z,99717.34
2022-08-04T02:34:17.562Z,99720.88
2022-08-04T02:36:45.784Z,99706.00
2022-08-04T02:39:13.935Z,99716.00
2022-08-04T02:41:40.855Z,99727.91
2022-08-04T02:44:10.581Z,99726.00
2022-08-04T02:46:38.979Z,99726.59
2022-08-04T02:49:08.448Z,99731.69
2022-08-04T02:51:40.670Z,99722.47
2022-08-04T02:54:08.674Z,99729.00
2022-08-04T02:56:37.548Z,99728.47
2022-08-04T02:59:10.893Z,99729.50
2022-08-04T03:01:56.948Z,99733.25
2022-08-04T03:04:34.093Z,99727.59
2022-08-04T03:07:53.750Z,99723.00
2022-08-04T03:10:42.225Z,99729.72
2022-08-04T03:13:27.792Z,99723.78
2022-08-04T03:16:22.417Z,99732.97
2022-08-04T03:19:10.997Z,99737.53
2022-08-04T03:21:49.957Z,99746.38
2022-08-04T03:24:38.030Z,99736.88
2022-08-04T03:27:35.583Z,99734.91
2022-08-04T03:30:43.454Z,99727.25
2022-08-04T03:33:45.556Z,99733.72
2022-08-04T03:36:39.056Z,99736.53
2022-08-04T03:39:21.171Z,99741.91
2022-08-04T03:42:18.406Z,99735.72
2022-08-04T03:45:03.732Z,99735.16
2022-08-04T03:47:58.916Z,99727.38
2022-08-04T03:51:35.594Z,99741.13
2022-08-04T03:54:17.491Z,99743.34
2022-08-04T03:57:05.859Z,99744.41
2022-08-04T03:59:48.673Z,99740.13
2022-08-04T04:02:33.586Z,99746.66
2022-08-04T04:05:12.346Z,99751.56
2022-08-04T04:08:19.201Z,99759.69
2022-08-04T04:11:08.638Z,99751.34
2022-08-04T04:13:44.694Z,99740.91
2022-08-04T04:16:26.401Z,99751.50
2022-08-04T04:18:55.970Z,99752.81
2022-08-04T04:21:34.668Z,99747.97
2022-08-04T04:24:33.628Z,99749.66
2022-08-04T04:27:28.528Z,99742.63
2022-08-04T04:30:37.636Z,99750.66
2022-08-04T04:33:19.905Z,99750.19
2022-08-04T04:36:09.258Z,99754.03
2022-08-04T04:39:04.137Z,99754.28
2022-08-04T04:41:30.956Z,99753.22
2022-08-04T04:44:42.804Z,99759.72
2022-08-04T04:48:07.211Z,99758.38
2022-08-04T04:50:35.029Z,99756.22
2022-08-04T04:53:38.626Z,99763.25
2022-08-04T04:56:23.881Z,99755.16
2022-08-04T04:58:54.571Z,99759.50
2022-08-04T05:02:15.456Z,99759.22
2022-08-04T05:04:53.991Z,99765.16
2022-08-04T05:07:46.611Z,99761.88
2022-08-04T05:10:19.187Z,99766.97
2022-08-04T05:14:34.408Z,99763.47
2022-08-04T05:15:37.724Z,99770.72
2022-08-04T05:18:07.729Z,99781.53
2022-08-04T05:20:44.087Z,99784.75
2022-08-04T05:23:17.380Z,99714.97
2022-08-04T05:25:59.249Z,99777.03
2022-08-04T05:28:37.005Z,99782.13
2022-08-04T05:31:19.039Z,99766.06
2022-08-04T05:34:00.889Z,99772.72
2022-08-04T05:36:41.236Z,99786.94
2022-08-04T05:39:15.606Z,99782.84
2022-08-04T05:41:45.369Z,99773.38
2022-08-04T05:44:15.206Z,99778.03
2022-08-04T05:46:43.968Z,99765.09
2022-08-04T05:49:16.573Z,99770.19
2022-08-04T05:51:49.067Z,99777.22
2022-08-04T05:54:18.533Z,99764.28
2022-08-04T05:56:45.847Z,99763.06
2022-08-04T05:59:14.883Z,99749.25
2022-08-04T06:01:55.890Z,99769.44
2022-08-04T06:04:54.469Z,99764.56
2022-08-04T06:07:21.673Z,99762.19
2022-08-04T06:09:48.616Z,99765.31
2022-08-04T06:12:23.504Z,99765.59
2022-08-04T06:14:59.425Z,99768.63
2022-08-04T06:19:56.438Z,99762.72
2022-08-04T06:20:23.169Z,99763.06
2022-08-04T06:22:59.465Z,99762.09
2022-08-04T06:25:31.518Z,99767.16
2022-08-04T06:27:59.967Z,99762.19
2022-08-04T06:30:28.691Z,99757.22
2022-08-04T06:33:03.833Z,99758.13
2022-08-04T06:35:34.166Z,99743.09
2022-08-04T06:38:03.132Z,99749.53
2022-08-04T06:40:33.873Z,99753.47
2022-08-04T06:43:06.656Z,99756.06
2022-08-04T06:45:40.032Z,99757.59
2022-08-04T06:48:08.767Z,99756.16
2022-08-04T06:51:32.023Z,99756.41
2022-08-04T06:53:27.395Z,99754.88
2022-08-04T06:55:55.203Z,99744.38
2022-08-04T06:58:23.429Z,99751.53
2022-08-04T07:00:51.228Z,99748.97
2022-08-04T07:03:19.323Z,99746.16
2022-08-04T07:05:51.557Z,99750.06
2022-08-04T07:08:19.332Z,99752.63
2022-08-04T07:10:46.729Z,99747.78
2022-08-04T07:13:14.549Z,99688.75
2022-08-04T07:15:46.893Z,99744.09
2022-08-04T07:18:13.903Z,99745.00
2022-08-04T07:20:43.023Z,99741.63
2022-08-04T07:23:12.129Z,99727.31
2022-08-04T07:25:59.976Z,99744.38
2022-08-04T07:28:29.545Z,99741.97
2022-08-04T07:30:58.337Z,99733.13
2022-08-04T07:33:26.327Z,99737.47
2022-08-04T07:38:51.938Z,99732.13
2022-08-04T07:41:40.706Z,99728.53
2022-08-04T07:44:08.646Z,99734.81
2022-08-04T07:46:37.008Z,99728.81
2022-08-04T07:49:05.547Z,99723.16
2022-08-04T07:51:33.147Z,99725.16
2022-08-04T07:54:00.642Z,99715.38
2022-08-04T07:56:28.560Z,99726.31
2022-08-04T07:58:56.310Z,99717.38
2022-08-04T08:01:25.896Z,99728.97
2022-08-04T08:03:55.498Z,99730.34
2022-08-04T08:06:32.624Z,99719.22
2022-08-04T08:09:12.555Z,99720.25
2022-08-04T08:12:37.747Z,99716.84
2022-08-04T08:14:36.465Z,99725.34
2022-08-04T08:17:05.070Z,99718.69
2022-08-04T08:19:34.813Z,99708.16
2022-08-04T08:22:02.420Z,99721.53
2022-08-04T08:24:36.488Z,99706.63
2022-08-04T08:27:04.785Z,99713.63
2022-08-04T08:29:34.114Z,99709.16
2022-08-04T08:32:07.782Z,99705.44
2022-08-04T08:34:36.034Z,99686.38
2022-08-04T08:37:27.677Z,99697.75
2022-08-04T08:40:16.322Z,99699.22
2022-08-04T08:44:00.669Z,99700.03
2022-08-04T08:46:47.951Z,99698.41
2022-08-04T08:50:02.949Z,99699.97
2022-08-04T08:52:56.616Z,99700.22
2022-08-04T08:55:38.075Z,99698.97
2022-08-04T08:58:32.776Z,99692.53
2022-08-04T09:01:31.495Z,99683.50
2022-08-04T09:04:10.682Z,99692.16
2022-08-04T09:07:20.699Z,99685.91
2022-08-04T09:10:01.720Z,99685.47
2022-08-04T09:12:40.288Z,99694.91
2022-08-04T09:15:29.990Z,99683.09
2022-08-04T09:18:05.944Z,99685.56
2022-08-04T09:20:54.164Z,99662.41
2022-08-04T09:23:20.819Z,99665.63
2022-08-04T09:25:54.870Z,99665.13
2022-08-04T09:28:52.289Z,99671.09
2022-08-04T09:31:19.946Z,99660.06
2022-08-04T09:34:21.825Z,99678.03
2022-08-04T09:37:13.324Z,99677.25
2022-08-04T09:40:05.091Z,99616.66
2022-08-04T09:42:45.472Z,99671.03
2022-08-04T09:45:26.547Z,99661.31
2022-08-04T09:48:02.974Z,99661.19
2022-08-04T09:50:37.787Z,99669.44
2022-08-04T09:53:13.922Z,99662.59
2022-08-04T09:55:54.317Z,99661.81
2022-08-04T09:58:47.921Z,99652.97
2022-08-04T10:01:24.427Z,99643.91
2022-08-04T10:03:55.678Z,99653.56
2022-08-04T10:06:43.541Z,99654.34
2022-08-04T10:09:13.243Z,99645.31
2022-08-04T10:11:54.763Z,99651.03
2022-08-04T10:14:27.085Z,99639.94
2022-08-04T10:17:24.114Z,99630.47
2022-08-04T10:20:03.434Z,99636.09
2022-08-04T10:23:12.324Z,99643.03
2022-08-04T10:26:08.570Z,99636.72
2022-08-04T10:28:46.528Z,99634.09
2022-08-04T10:31:32.251Z,99623.59
2022-08-04T10:34:24.977Z,99638.75
2022-08-04T10:38:00.357Z,99630.28
2022-08-04T10:40:48.156Z,99627.34
2022-08-04T10:43:46.008Z,99618.19
2022-08-04T10:46:21.482Z,99626.44
2022-08-04T10:48:59.285Z,99625.47
2022-08-04T10:51:57.978Z,99619.63
2022-08-04T10:54:52.791Z,99624.34
2022-08-04T10:57:38.112Z,99621.03
2022-08-04T11:00:12.988Z,99624.13
2022-08-04T11:02:42.910Z,99626.94
2022-08-04T11:05:21.780Z,99626.63
2022-08-04T11:07:52.670Z,99620.34
2022-08-04T11:10:25.509Z,99621.03
2022-08-04T11:12:58.339Z,99605.78
2022-08-04T11:15:38.282Z,99606.03
2022-08-04T11:18:17.028Z,99608.34
2022-08-04T11:20:55.556Z,99610.00
2022-08-04T11:23:29.322Z,99606.47
2022-08-04T11:26:21.671Z,99580.63
2022-08-04T11:29:12.209Z,99599.44
2022-08-04T11:31:49.736Z,99588.50
2022-08-04T11:34:19.995Z,99578.53
2022-08-04T11:37:14.580Z,99600.94
2022-08-04T11:40:24.976Z,99602.22
2022-08-04T11:43:02.741Z,99580.59
2022-08-04T11:45:38.114Z,99580.97
2022-08-04T11:48:14.003Z,99563.47
2022-08-04T11:50:53.415Z,99576.03
2022-08-04T11:53:28.398Z,99575.91
2022-08-04T11:56:09.651Z,99569.63
2022-08-04T11:58:38.586Z,99582.16
2022-08-04T12:01:08.152Z,99570.47
2022-08-04T12:04:01.196Z,99569.78
2022-08-04T12:06:56.819Z,99569.63
2022-08-04T12:09:55.638Z,99564.41
2022-08-04T12:12:32.693Z,99561.19
2022-08-04T12:15:32.962Z,99568.59
2022-08-04T12:18:24.717Z,99554.94
2022-08-04T12:20:59.255Z,99561.47
2022-08-04T12:23:47.098Z,99558.09
2022-08-04T12:26:21.380Z,99531.84
2022-08-04T12:29:09.582Z,99562.75
2022-08-04T12:31:52.843Z,99546.31
2022-08-04T12:34:31.439Z,99548.38
2022-08-04T12:37:14.543Z,99531.84
2022-08-04T12:40:29.188Z,99536.31
2022-08-04T12:42:56.027Z,99525.13
2022-08-04T12:45:27.222Z,99531.25
2022-08-04T12:47:58.000Z,99532.41
2022-08-04T12:50:25.626Z,99530.63
2022-08-04T12:53:02.228Z,99521.47
2022-08-04T12:55:33.695Z,99534.78
2022-08-04T12:58:02.955Z,99525.19
2022-08-04T13:00:40.776Z,99530.56
2022-08-04T13:03:18.037Z,99538.53
2022-08-04T13:05:45.853Z,99541.66
2022-08-04T13:08:14.056Z,99531.38
2022-08-04T13:10:46.024Z,99522.50
2022-08-04T13:13:18.556Z,99528.44
2022-08-04T13:15:58.016Z,99528.78
2022-08-04T13:18:32.132Z,99529.88
2022-08-04T13:21:19.444Z,99540.38
2022-08-04T13:24:10.163Z,99529.78
2022-08-04T13:26:55.597Z,99530.47
2022-08-04T13:29:57.777Z,99537.06
2022-08-04T13:32:22.525Z,99533.38
2022-08-04T13:34:54.058Z,99513.22
2022-08-04T13:37:35.152Z,99527.53
2022-08-04T13:40:06.530Z,99525.59
2022-08-04T13:42:35.776Z,99513.34
2022-08-04T13:45:07.020Z,99531.50
2022-08-04T13:47:38.313Z,99535.22
2022-08-04T13:50:20.526Z,99531.91
2022-08-04T13:52:47.891Z,99525.84
2022-08-04T13:55:42.386Z,99534.44
2022-08-04T13:58:21.571Z,99525.97
2022-08-04T14:00:55.395Z,99523.31
2022-08-04T14:03:29.466Z,99533.16
2022-08-04T14:06:13.558Z,99526.72
2022-08-04T14:09:19.566Z,99511.50
2022-08-04T14:12:10.893Z,99521.38
2022-08-04T14:14:44.233Z,99506.38
2022-08-04T14:17:29.932Z,99525.97
2022-08-04T14:20:00.413Z,99519.31
2022-08-04T14:22:30.208Z,99531.22
2022-08-04T14:24:57.337Z,99528.22
2022-08-04T14:27:25.406Z,99528.41
2022-08-04T14:29:52.402Z,99536.09
2022-08-04T14:32:21.550Z,99520.84
2022-08-04T14:34:52.511Z,99523.69
2022-08-04T14:37:23.078Z,99528.06
2022-08-04T14:40:17.719Z,99533.84
2022-08-04T14:42:54.619Z,99530.91
2022-08-04T14:45:34.388Z,99506.16
2022-08-04T14:48:06.385Z,99529.28
2022-08-04T14:50:43.232Z,99523.56
2022-08-04T14:53:12.533Z,99517.16
2022-08-04T14:55:42.804Z,99505.25
2022-08-04T14:58:36.228Z,99524.94
2022-08-04T15:01:09.710Z,99515.09
2022-08-04T15:03:49.687Z,99516.00
2022-08-04T15:06:21.888Z,99522.88
2022-08-04T15:08:51.250Z,99519.69
2022-08-04T15:11:23.567Z,99517.84
2022-08-04T15:13:51.766Z,99516.22
2022-08-04T15:16:19.686Z,99515.19
2022-08-04T15:18:48.159Z,99518.75
2022-08-04T15:21:17.167Z,99521.97
2022-08-04T15:23:43.949Z,99521.38
2022-08-04T15:26:17.207Z,99507.53
2022-08-04T15:28:50.451Z,99512.72
2022-08-04T15:32:04.786Z,99516.34
2022-08-04T15:34:10.083Z,99517.03
2022-08-04T15:36:57.437Z,99524.69
2022-08-04T15:39:42.982Z,99516.09
2022-08-04T15:42:30.913Z,99514.59
2022-08-04T15:45:21.494Z,99522.13
2022-08-04T15:48:11.305Z,99521.31
2022-08-04T15:51:08.319Z,99523.16
2022-08-04T15:54:03.311Z,99538.59
2022-08-04T15:56:27.858Z,99532.63
2022-08-04T15:58:55.385Z,99531.75
2022-08-04T16:01:22.477Z,99528.53
2022-08-04T16:03:58.717Z,99525.22
2022-08-04T16:06:28.830Z,99532.88
2022-08-04T16:09:02.139Z,99534.97
2022-08-04T16:11:31.486Z,99530.72
2022-08-04T16:13:58.972Z,99546.84
2022-08-04T16:16:31.701Z,99539.94
2022-08-04T16:19:07.018Z,99537.66
2022-08-04T16:21:47.173Z,99526.13
2022-08-04T16:24:35.441Z,99534.69
2022-08-04T16:27:04.746Z,99533.25
2022-08-04T16:29:42.245Z,99527.69
2022-08-04T16:32:13.443Z,99556.97
2022-08-04T16:34:55.441Z,99549.25
2022-08-04T16:37:35.773Z,99547.03
2022-08-04T16:40:35.663Z,99551.81
2022-08-04T16:43:08.326Z,99565.78
2022-08-04T16:45:48.314Z,99565.69
2022-08-04T16:48:18.016Z,99555.59
2022-08-04T16:50:52.579Z,99554.81
2022-08-04T16:53:53.965Z,99552.75
2022-08-04T16:56:11.093Z,99567.16
2022-08-04T16:58:38.298Z,99565.38
2022-08-04T17:01:33.787Z,99572.63
2022-08-04T17:04:05.537Z,99579.56
2022-08-04T17:06:41.468Z,99578.13
2022-08-04T17:09:16.676Z,99573.63
2022-08-04T17:11:44.920Z,99578.78
2022-08-04T17:14:12.189Z,99581.34
2022-08-04T17:16:42.375Z,99584.28
2022-08-04T17:19:19.940Z,99588.28
2022-08-04T17:21:52.422Z,99590.06
2022-08-04T17:24:19.218Z,99593.59
2022-08-04T17:26:53.538Z,99593.88
2022-08-04T17:29:21.879Z,99595.31
2022-08-04T17:31:48.806Z,99594.81
2022-08-04T17:34:21.509Z,99596.38
2022-08-04T17:36:48.947Z,99605.84
2022-08-04T17:39:21.395Z,99602.91
2022-08-04T17:41:49.706Z,99605.28
2022-08-04T17:44:17.821Z,99612.00
2022-08-04T17:46:48.450Z,99605.34
2022-08-04T17:49:18.435Z,99609.34
2022-08-04T17:52:04.549Z,99622.31
2022-08-04T17:54:40.032Z,99624.47
2022-08-04T17:57:21.795Z,99630.00
2022-08-04T17:59:57.514Z,99622.63
2022-08-04T18:02:32.446Z,99640.63
2022-08-04T18:05:05.600Z,99634.31
2022-08-04T18:08:39.363Z,99651.69
2022-08-04T18:10:56.957Z,99642.94
2022-08-04T18:13:28.145Z,99638.94
2022-08-04T18:16:05.605Z,99645.84
2022-08-04T18:18:33.163Z,99658.13
2022-08-04T18:21:02.964Z,99657.03
2022-08-04T18:23:32.688Z,99663.41
2022-08-04T18:26:02.258Z,99658.94
2022-08-04T18:28:33.371Z,99642.84
2022-08-04T18:31:01.549Z,99653.69
2022-08-04T18:33:40.926Z,99670.34
2022-08-04T18:36:32.844Z,99675.09
2022-08-04T18:39:13.551Z,99674.19
2022-08-04T18:42:01.933Z,99680.09
2022-08-04T18:44:51.886Z,99683.72
2022-08-04T18:47:29.786Z,99666.28
2022-08-04T18:50:58.688Z,99684.25
2022-08-04T18:52:45.499Z,99685.06
2022-08-04T18:55:55.758Z,99683.31
2022-08-04T18:58:01.590Z,99688.88
2022-08-04T19:00:33.220Z,99688.81
2022-08-04T19:03:01.385Z,99696.19
2022-08-04T19:05:38.209Z,99704.41
2022-08-04T19:08:33.395Z,99708.28
2022-08-04T19:10:59.970Z,99697.66
2022-08-04T19:13:28.231Z,99699.41
2022-08-04T19:16:01.700Z,99695.75
2022-08-04T19:18:29.051Z,99710.72
2022-08-04T19:20:55.985Z,99706.91
2022-08-04T19:24:28.102Z,99695.97
2022-08-04T19:26:23.624Z,99708.66
2022-08-04T19:28:55.273Z,99709.03
2022-08-04T19:31:34.061Z,99694.94
2022-08-04T19:34:05.136Z,99715.66
2022-08-04T19:36:34.692Z,99703.25
2022-08-04T19:39:11.230Z,99722.09
2022-08-04T19:42:06.090Z,99714.25
2022-08-04T19:44:30.067Z,99724.34
2022-08-04T19:47:00.913Z,99721.84
2022-08-04T19:50:04.775Z,99723.22
2022-08-04T19:52:33.205Z,99717.28
2022-08-04T19:55:00.281Z,99726.16
2022-08-04T19:57:38.172Z,99725.34
2022-08-04T20:00:09.332Z,99724.97
2022-08-04T20:02:36.924Z,99707.75
2022-08-04T20:05:08.756Z,99722.69
2022-08-04T20:07:35.957Z,99726.38
2022-08-04T20:10:05.140Z,99729.94
2022-08-04T20:12:32.429Z,99718.00
2022-08-04T20:14:59.678Z,99731.81
2022-08-04T20:18:08.466Z,99723.38
2022-08-04T20:20:14.918Z,99725.84
2022-08-04T20:22:52.226Z,99735.31
2022-08-04T20:25:37.321Z,99723.97
2022-08-04T20:28:07.259Z,99725.03
2022-08-04T20:30:34.001Z,99728.28
2022-08-04T20:33:04.316Z,99726.91
2022-08-04T20:35:46.012Z,99726.38
2022-08-04T20:38:33.370Z,99730.41
2022-08-04T20:41:01.832Z,99720.94
2022-08-04T20:46:18.653Z,99728.91
2022-08-04T20:48:55.635Z,99731.63
2022-08-04T20:51:31.547Z,99730.00
2022-08-04T20:53:59.988Z,99723.97
2022-08-04T20:56:30.649Z,99728.00
2022-08-04T20:59:00.007Z,99733.13
2022-08-04T21:01:29.842Z,99731.75
2022-08-04T21:04:27.483Z,99722.84
2022-08-04T21:06:59.447Z,99724.28
2022-08-04T21:09:37.893Z,99688.22
2022-08-04T21:12:10.502Z,99718.53
2022-08-04T21:14:37.390Z,99720.13
2022-08-04T21:17:07.207Z,99720.66
2022-08-04T21:19:36.645Z,99714.25
2022-08-04T21:22:10.263Z,99710.78
2022-08-04T21:24:37.983Z,99710.13
2022-08-04T21:27:09.838Z,99706.84
2022-08-04T21:29:36.787Z,99712.88
2022-08-04T21:32:05.945Z,99707.88
2022-08-04T21:34:38.041Z,99702.09
2022-08-04T21:37:06.015Z,99708.97
2022-08-04T21:39:32.932Z,99713.78
2022-08-04T21:42:29.325Z,99711.72
2022-08-04T21:44:57.916Z,99704.63
2022-08-04T21:47:24.759Z,99703.75
2022-08-04T21:52:38.258Z,99708.31
2022-08-04T21:55:07.004Z,99703.59
2022-08-04T21:57:34.401Z,99703.13
2022-08-04T22:00:10.871Z,99695.16
2022-08-04T22:02:45.354Z,99707.88
2022-08-04T22:05:15.838Z,99708.41
2022-08-04T22:10:32.617Z,99709.47
2022-08-04T22:13:22.609Z,99695.69
2022-08-04T22:16:05.189Z,99698.94
2022-08-04T22:18:32.409Z,99695.19
2022-08-04T22:21:04.578Z,99690.31
2022-08-04T22:23:45.130Z,99695.16
2022-08-04T22:26:26.491Z,99691.75
2022-08-04T22:28:54.963Z,99678.56
2022-08-04T22:31:23.526Z,99693.94
2022-08-04T22:33:54.978Z,99683.41
2022-08-04T22:36:24.890Z,99694.50
2022-08-04T22:39:04.408Z,99689.41
2022-08-04T22:42:02.875Z,99680.53
2022-08-04T22:44:21.088Z,99680.31
2022-08-04T22:46:50.614Z,99693.81
2022-08-04T22:49:17.317Z,99692.75
2022-08-04T22:51:48.472Z,99691.63
2022-08-04T22:54:17.676Z,99704.09
2022-08-04T22:56:45.690Z,99691.34
2022-08-04T22:59:12.721Z,99689.94
2022-08-04T23:01:59.735Z,99703.22
2022-08-04T23:04:30.013Z,99704.59
2022-08-04T23:06:57.236Z,99697.03
2022-08-04T23:09:49.562Z,99695.44
2022-08-04T23:12:24.258Z,99694.09
2022-08-04T23:14:53.604Z,99683.47
2022-08-04T23:17:22.212Z,99687.91
2022-08-04T23:19:55.439Z,99686.22
2022-08-04T23:22:41.320Z,99672.41
2022-08-04T23:25:15.935Z,99686.00
2022-08-04T23:27:50.373Z,99673.56
2022-08-04T23:30:19.640Z,99677.44
2022-08-04T23:32:46.394Z,99668.25
2022-08-04T23:35:15.053Z,99670.03
2022-08-04T23:37:48.304Z,99677.75
2022-08-04T23:40:33.033Z,99670.69
2022-08-04T23:43:00.923Z,99670.69
2022-08-04T23:46:06.581Z,99674.63
2022-08-04T23:48:19.422Z,99670.69
2022-08-04T23:50:48.144Z,99666.94
2022-08-04T23:53:18.720Z,99664.22
2022-08-04T23:55:49.690Z,99664.53
2022-08-04T23:58:18.731Z,99665.16
